Time;durP1;ratioP1;P1;durP2;ratioP2;P2;SDS_P1;SDS_P2;PMS_P1;PMS_P2;Temp;Humidity;BMP_temperature;BMP_pressure;BME280_temperature;BME280_humidity;BME280_pressure;Samples;Min_cycle;Max_cycle;Signal;HPM_P1;HPM_P2
2021/09/26 00:00:13;;;;;;;6.57;5.43;;;;;;;15.05;81.00;100724.72;694399;28;3505;-52
2021/09/26 00:00:34;;;;;;;5.88;5.07;;;;;;;15.06;81.26;100732.56;693153;28;1087;-52
2021/09/26 00:00:54;;;;;;;6.10;4.97;;;;;;;15.07;80.99;100734.31;693776;28;1221;-54
2021/09/26 00:01:15;;;;;;;5.87;4.67;;;;;;;15.08;81.07;100729.94;693384;28;4498;-57
2021/09/26 00:01:35;;;;;;;5.80;4.90;;;;;;;15.08;81.26;100736.06;696896;28;1155;-54
2021/09/26 00:01:55;;;;;;;6.82;5.03;;;;;;;15.08;80.64;100727.31;697502;28;1058;-53
2021/09/26 00:02:19;;;;;;;6.80;5.13;;;;;;;15.10;80.52;100733.38;697432;28;1082;-52
2021/09/26 00:02:40;;;;;;;6.68;5.30;;;;;;;15.10;80.02;100733.38;696760;28;1337;-55
2021/09/26 00:03:00;;;;;;;7.05;5.30;;;;;;;15.10;80.24;100731.59;696839;28;1039;-56
2021/09/26 00:03:21;;;;;;;6.70;5.30;;;;;;;15.11;80.15;100735.97;696543;28;1241;-53
2021/09/26 00:03:41;;;;;;;6.50;5.35;;;;;;;15.13;80.22;100735.94;696447;28;2004;-54
2021/09/26 00:04:03;;;;;;;6.37;5.00;;;;;;;15.14;80.45;100740.31;697120;28;4009;-52
2021/09/26 00:04:23;;;;;;;7.47;5.25;;;;;;;15.14;80.15;100738.53;695862;28;4338;-54
2021/09/26 00:04:44;;;;;;;8.73;5.60;;;;;;;15.15;79.68;100739.44;696794;28;1141;-52
2021/09/26 00:05:05;;;;;;;8.13;5.70;;;;;;;15.15;79.92;100737.66;697146;28;1353;-52
2021/09/26 00:05:25;;;;;;;7.28;5.45;;;;;;;15.16;79.92;100738.53;697290;28;1431;-55
2021/09/26 00:05:46;;;;;;;7.30;5.60;;;;;;;15.14;80.58;100735.06;696667;28;1258;-54
2021/09/26 00:06:06;;;;;;;6.83;5.40;;;;;;;15.16;80.23;100730.63;695996;28;2720;-55
2021/09/26 00:06:27;;;;;;;6.97;5.40;;;;;;;15.15;81.00;100731.53;696079;28;1301;-53
2021/09/26 00:06:47;;;;;;;7.17;5.53;;;;;;;15.14;81.07;100735.06;696580;28;1308;-55
2021/09/26 00:07:07;;;;;;;8.20;5.80;;;;;;;15.14;80.87;100737.69;696952;28;1491;-53
2021/09/26 00:07:28;;;;;;;7.27;5.67;;;;;;;15.13;80.61;100734.19;694737;28;4537;-52
2021/09/26 00:07:48;;;;;;;7.30;5.30;;;;;;;15.12;80.98;100732.47;692980;28;2215;-55
2021/09/26 00:08:08;;;;;;;7.70;5.45;;;;;;;15.11;80.91;100733.34;693876;28;1241;-54
2021/09/26 00:08:29;;;;;;;7.77;5.50;;;;;;;15.12;80.61;100739.50;694323;28;1396;-57
2021/09/26 00:08:49;;;;;;;8.18;5.55;;;;;;;15.11;81.03;100735.13;691531;28;1489;-56
2021/09/26 00:09:10;;;;;;;6.87;5.17;;;;;;;15.09;80.56;100732.53;695160;28;1111;-56
2021/09/26 00:09:30;;;;;;;7.70;5.22;;;;;;;15.08;80.14;100741.31;694535;28;1218;-53
2021/09/26 00:09:51;;;;;;;6.60;5.20;;;;;;;15.08;80.49;100730.78;694315;28;1317;-54
2021/09/26 00:10:13;;;;;;;7.07;5.20;;;;;;;15.08;80.30;100737.84;694816;28;1317;-55
2021/09/26 00:10:33;;;;;;;7.38;5.03;;;;;;;15.07;80.36;100736.09;695738;28;5130;-52
2021/09/26 00:10:54;;;;;;;6.33;5.17;;;;;;;15.07;80.13;100728.19;697290;28;1303;-52
2021/09/26 00:11:14;;;;;;;6.70;5.40;;;;;;;15.04;80.33;100734.41;697445;28;1499;-53
2021/09/26 00:11:35;;;;;;;7.73;5.40;;;;;;;15.05;80.29;100737.88;697129;28;1503;-56
2021/09/26 00:11:56;;;;;;;7.35;5.30;;;;;;;15.06;80.49;100731.72;697910;28;1204;-52
2021/09/26 00:12:16;;;;;;;6.97;5.40;;;;;;;15.07;80.69;100734.31;697459;28;1050;-53
2021/09/26 00:12:38;;;;;;;6.57;5.30;;;;;;;15.07;80.57;100736.94;696684;28;1217;-54
2021/09/26 00:12:58;;;;;;;6.53;5.28;;;;;;;15.06;80.63;100731.72;698250;28;1453;-53
2021/09/26 00:13:19;;;;;;;5.90;5.20;;;;;;;15.07;80.52;100733.47;697584;28;4527;-56
2021/09/26 00:13:41;;;;;;;6.10;4.97;;;;;;;15.09;80.55;100734.28;696849;28;3292;-55
2021/09/26 00:14:02;;;;;;;6.50;5.22;;;;;;;15.09;81.16;100731.66;695988;28;1278;-53
2021/09/26 00:14:22;;;;;;;7.47;5.33;;;;;;;15.07;80.44;100728.19;694724;28;1318;-54
2021/09/26 00:14:43;;;;;;;7.07;5.28;;;;;;;15.06;79.74;100729.09;694351;28;1258;-52
2021/09/26 00:15:08;;;;;;;7.20;5.18;;;;;;;15.03;79.62;100726.53;695532;28;1372;-53
2021/09/26 00:15:28;;;;;;;7.03;5.38;;;;;;;15.06;79.89;100737.00;694163;28;1164;-53
2021/09/26 00:15:49;;;;;;;6.93;5.10;;;;;;;15.08;79.99;100735.22;691721;28;1469;-56
2021/09/26 00:16:10;;;;;;;7.53;5.20;;;;;;;15.08;80.26;100735.22;692594;28;1207;-56
2021/09/26 00:16:31;;;;;;;6.35;5.10;;;;;;;15.06;81.28;100734.34;692548;28;4296;-55
2021/09/26 00:16:54;;;;;;;6.80;5.23;;;;;;;15.06;80.43;100735.22;693609;28;4000;-52
2021/09/26 00:17:14;;;;;;;7.43;5.40;;;;;;;15.08;80.24;100736.06;694894;28;1929;-55
2021/09/26 00:17:35;;;;;;;6.73;5.23;;;;;;;15.07;79.66;100741.38;696346;28;1122;-54
2021/09/26 00:17:56;;;;;;;6.93;5.50;;;;;;;15.06;79.57;100731.72;699502;28;1067;-55
2021/09/26 00:18:16;;;;;;;6.78;5.20;;;;;;;15.06;79.65;100734.34;699761;28;1145;-57
2021/09/26 00:18:37;;;;;;;6.90;5.27;;;;;;;15.04;79.83;100734.41;697563;28;1086;-53
2021/09/26 00:18:58;;;;;;;7.25;5.30;;;;;;;15.03;80.04;100735.28;697189;28;1212;-55
2021/09/26 00:19:18;;;;;;;7.20;5.30;;;;;;;15.03;80.11;100731.81;696961;28;4511;-55
2021/09/26 00:19:38;;;;;;;6.73;5.27;;;;;;;15.02;80.17;100732.69;697199;28;964;-52
2021/09/26 00:19:59;;;;;;;6.13;5.22;;;;;;;15.03;80.06;100729.16;696788;28;3480;-54
2021/09/26 00:20:21;;;;;;;6.03;5.10;;;;;;;15.04;80.29;100733.53;698003;28;1231;-55
2021/09/26 00:20:41;;;;;;;5.78;5.00;;;;;;;15.03;80.94;100731.81;697098;28;1255;-54
2021/09/26 00:21:02;;;;;;;7.03;5.07;;;;;;;15.02;80.32;100730.91;697708;28;1148;-52
2021/09/26 00:21:22;;;;;;;6.03;5.20;;;;;;;15.02;80.05;100730.06;697968;28;1062;-52
2021/09/26 00:21:43;;;;;;;6.35;5.20;;;;;;;15.02;80.02;100732.69;697469;28;1003;-53
2021/09/26 00:22:04;;;;;;;7.23;5.43;;;;;;;15.01;80.15;100726.56;697696;28;1106;-52
2021/09/26 00:22:24;;;;;;;7.03;5.25;;;;;;;15.02;80.21;100727.44;697180;28;4453;-52
2021/09/26 00:22:45;;;;;;;6.97;5.32;;;;;;;15.02;80.44;100727.44;696075;28;1083;-53
2021/09/26 00:23:05;;;;;;;7.63;5.22;;;;;;;15.01;80.44;100728.31;697250;28;3855;-56
2021/09/26 00:23:27;;;;;;;8.07;5.23;;;;;;;15.01;80.21;100730.94;695053;28;1158;-56
2021/09/26 00:23:49;;;;;;;7.40;5.60;;;;;;;14.98;79.98;100719.59;694002;28;1626;-54
2021/09/26 00:24:09;;;;;;;6.70;5.50;;;;;;;14.98;80.06;100722.25;695201;28;1078;-56
2021/09/26 00:24:29;;;;;;;6.80;5.60;;;;;;;14.96;79.84;100729.28;695650;28;1015;-55
2021/09/26 00:24:50;;;;;;;6.37;5.10;;;;;;;14.96;79.98;100737.19;694538;28;1162;-52
2021/09/26 00:25:12;;;;;;;6.05;4.90;;;;;;;14.96;80.09;100731.91;698231;28;1169;-55
2021/09/26 00:25:33;;;;;;;6.38;5.25;;;;;;;14.98;80.28;100724.88;698434;28;4250;-53
2021/09/26 00:25:55;;;;;;;6.43;5.07;;;;;;;15.01;80.21;100729.19;697026;28;3198;-53
2021/09/26 00:26:15;;;;;;;6.63;5.25;;;;;;;15.05;80.24;100724.72;698091;28;3549;-52
2021/09/26 00:26:35;;;;;;;6.70;5.30;;;;;;;15.06;80.27;100731.72;697280;28;1280;-54
2021/09/26 00:26:56;;;;;;;6.47;5.23;;;;;;;15.06;80.14;100729.09;697060;28;1602;-53
2021/09/26 00:27:16;;;;;;;6.93;5.70;;;;;;;15.05;78.95;100730.88;699471;28;1191;-55
2021/09/26 00:27:37;;;;;;;7.35;5.63;;;;;;;15.04;78.77;100728.28;694622;28;1051;-53
2021/09/26 00:27:57;;;;;;;7.03;5.67;;;;;;;15.01;78.95;100733.59;695380;28;1257;-52
2021/09/26 00:28:19;;;;;;;6.10;5.33;;;;;;;15.00;78.87;100734.50;694947;28;4350;-56
2021/09/26 00:28:39;;;;;;;7.22;5.25;;;;;;;15.00;79.30;100731.88;694895;28;1150;-53
2021/09/26 00:29:00;;;;;;;7.43;5.38;;;;;;;14.99;79.89;100720.47;694252;28;3021;-52
2021/09/26 00:29:20;;;;;;;6.80;5.10;;;;;;;15.00;79.73;100726.59;696807;28;3682;-56
2021/09/26 00:29:41;;;;;;;6.40;5.10;;;;;;;14.98;79.85;100731.88;697335;28;1203;-52
2021/09/26 00:30:03;;;;;;;6.60;5.40;;;;;;;14.98;79.90;100727.50;697807;28;1367;-56
2021/09/26 00:30:23;;;;;;;6.80;5.10;;;;;;;15.01;80.38;100733.59;697011;28;966;-55
2021/09/26 00:30:44;;;;;;;7.17;5.07;;;;;;;15.01;80.00;100733.59;698294;28;1341;-53
2021/09/26 00:31:04;;;;;;;6.47;4.87;;;;;;;15.01;79.95;100728.31;697462;28;1053;-55
2021/09/26 00:31:25;;;;;;;6.22;4.85;;;;;;;15.04;80.08;100738.81;696922;28;4360;-55
2021/09/26 00:31:45;;;;;;;7.53;5.25;;;;;;;15.05;80.55;100740.50;697302;28;1220;-54
2021/09/26 00:32:06;;;;;;;6.90;5.40;;;;;;;15.04;79.90;100734.41;696575;28;1994;-54
2021/09/26 00:32:27;;;;;;;6.63;5.30;;;;;;;15.04;79.38;100733.53;697488;28;3416;-54
2021/09/26 00:32:48;;;;;;;6.30;5.40;;;;;;;15.04;79.58;100725.66;696997;28;1371;-54
2021/09/26 00:33:08;;;;;;;6.20;5.25;;;;;;;15.04;79.64;100730.91;697456;28;1127;-52
2021/09/26 00:33:29;;;;;;;6.43;5.50;;;;;;;15.03;79.13;100732.66;697784;28;960;-53
2021/09/26 00:33:49;;;;;;;6.55;5.13;;;;;;;15.01;79.82;100731.84;697097;28;1178;-52
2021/09/26 00:34:10;;;;;;;7.07;5.30;;;;;;;15.01;80.11;100734.47;697216;28;1161;-55
2021/09/26 00:34:30;;;;;;;6.90;5.50;;;;;;;15.02;80.02;100735.31;697043;28;4548;-53
2021/09/26 00:34:51;;;;;;;6.70;5.22;;;;;;;15.00;79.81;100729.25;697033;28;912;-55
2021/09/26 00:35:12;;;;;;;6.40;5.10;;;;;;;15.01;79.73;100729.19;697176;28;3301;-52
2021/09/26 00:35:32;;;;;;;6.43;5.20;;;;;;;15.02;80.59;100733.53;693949;28;3543;-52
2021/09/26 00:35:53;;;;;;;6.30;5.50;;;;;;;15.02;80.56;100736.19;693608;28;1157;-54
2021/09/26 00:36:13;;;;;;;6.47;5.53;;;;;;;15.01;80.10;100736.22;695383;28;1304;-54
2021/09/26 00:36:33;;;;;;;7.03;5.30;;;;;;;15.00;79.47;100731.88;697783;28;1030;-56
2021/09/26 00:36:54;;;;;;;8.40;5.20;;;;;;;14.98;80.03;100735.41;697198;28;1238;-56
2021/09/26 00:37:14;;;;;;;6.63;5.10;;;;;;;15.01;80.16;100733.59;697024;28;4875;-52
2021/09/26 00:37:35;;;;;;;6.70;5.05;;;;;;;15.01;80.19;100741.47;696565;28;1318;-52
2021/09/26 00:37:55;;;;;;;9.27;5.20;;;;;;;15.00;79.54;100737.13;698023;28;1195;-54
2021/09/26 00:38:18;;;;;;;7.80;5.35;;;;;;;14.98;79.37;100732.78;697532;28;3181;-55
2021/09/26 00:38:39;;;;;;;6.47;5.30;;;;;;;14.97;79.60;100732.81;696299;28;3731;-54
2021/09/26 00:38:59;;;;;;;6.97;5.40;;;;;;;14.97;79.65;100735.44;697763;28;1164;-53
2021/09/26 00:39:19;;;;;;;6.00;4.97;;;;;;;14.97;79.84;100735.44;697272;28;1147;-52
2021/09/26 00:39:40;;;;;;;6.47;5.10;;;;;;;14.97;79.84;100738.06;696881;28;1501;-54
2021/09/26 00:40:00;;;;;;;7.38;5.65;;;;;;;14.97;79.96;100733.66;698054;28;1354;-52
2021/09/26 00:40:21;;;;;;;6.60;5.40;;;;;;;14.96;80.44;100734.56;697731;28;4689;-54
2021/09/26 00:40:41;;;;;;;6.50;5.57;;;;;;;14.95;81.07;100724.06;697189;28;1142;-52
2021/09/26 00:41:02;;;;;;;6.97;5.57;;;;;;;14.95;81.04;100732.84;698215;28;1325;-54
2021/09/26 00:41:23;;;;;;;7.38;5.55;;;;;;;14.93;81.63;100729.34;697065;28;3122;-55
2021/09/26 00:41:43;;;;;;;6.90;5.50;;;;;;;14.93;81.20;100725.88;696377;28;3515;-53
2021/09/26 00:42:04;;;;;;;7.90;5.43;;;;;;;14.92;81.43;100727.63;697405;28;1292;-56
2021/09/26 00:42:24;;;;;;;7.47;5.38;;;;;;;14.94;80.94;100720.56;696894;28;1270;-54
2021/09/26 00:42:45;;;;;;;6.65;5.20;;;;;;;14.94;81.57;100724.97;697425;28;3670;-55
2021/09/26 00:43:05;;;;;;;6.67;5.17;;;;;;;14.95;81.02;100730.22;698682;28;1013;-52
2021/09/26 00:43:26;;;;;;;6.75;5.15;;;;;;;14.96;81.51;100724.03;697209;28;4328;-53
2021/09/26 00:43:46;;;;;;;7.60;5.20;;;;;;;14.94;81.63;100722.34;696716;28;1205;-52
2021/09/26 00:44:07;;;;;;;7.95;5.15;;;;;;;14.92;81.38;100726.75;699564;28;1142;-53
2021/09/26 00:44:27;;;;;;;6.20;5.20;;;;;;;14.91;81.87;100725.91;698160;28;1015;-56
2021/09/26 00:44:47;;;;;;;6.40;5.30;;;;;;;14.92;81.46;100719.72;696343;28;4037;-54
2021/09/26 00:45:08;;;;;;;6.77;5.27;;;;;;;14.94;81.31;100724.97;698156;28;1074;-54
2021/09/26 00:45:29;;;;;;;7.43;5.43;;;;;;;14.93;82.33;100720.59;697412;28;1277;-54
2021/09/26 00:45:50;;;;;;;6.78;5.50;;;;;;;14.93;81.15;100718.84;696905;28;954;-54
2021/09/26 00:46:10;;;;;;;7.07;5.50;;;;;;;14.94;81.76;100723.19;696440;28;1062;-52
2021/09/26 00:46:30;;;;;;;7.93;5.20;;;;;;;14.95;81.26;100724.06;696363;28;5013;-53
2021/09/26 00:46:52;;;;;;;8.47;5.17;;;;;;;14.97;80.76;100727.53;697303;28;1466;-53
2021/09/26 00:47:12;;;;;;;8.18;5.45;;;;;;;14.99;81.10;100723.09;696849;28;1079;-53
2021/09/26 00:47:32;;;;;;;7.93;5.20;;;;;;;15.00;81.14;100726.59;697568;28;1066;-52
2021/09/26 00:47:53;;;;;;;6.30;4.87;;;;;;;15.02;80.65;100724.78;696027;28;3471;-56
2021/09/26 00:48:13;;;;;;;7.72;5.18;;;;;;;15.02;80.38;100720.38;697344;28;1444;-52
2021/09/26 00:48:34;;;;;;;8.40;5.50;;;;;;;15.00;79.95;100716.94;697325;28;1481;-54
2021/09/26 00:48:55;;;;;;;7.00;5.35;;;;;;;15.00;79.59;100721.34;696656;28;961;-56
2021/09/26 00:49:15;;;;;;;7.13;5.70;;;;;;;15.00;79.83;100716.94;696815;28;4899;-53
2021/09/26 00:49:36;;;;;;;7.47;5.50;;;;;;;14.99;80.06;100720.47;696776;28;1254;-55
2021/09/26 00:49:56;;;;;;;6.90;5.35;;;;;;;15.00;79.89;100724.84;697348;28;1165;-54
2021/09/26 00:50:17;;;;;;;7.03;5.23;;;;;;;15.03;79.93;100727.38;697224;28;1099;-52
2021/09/26 00:50:38;;;;;;;6.72;5.20;;;;;;;15.02;79.96;100723.00;696723;28;1014;-53
2021/09/26 00:50:59;;;;;;;6.28;5.22;;;;;;;15.03;79.92;100718.63;694150;28;3941;-55
2021/09/26 00:51:19;;;;;;;6.85;5.40;;;;;;;15.04;80.07;100728.28;693949;28;1260;-55
2021/09/26 00:51:39;;;;;;;6.67;5.30;;;;;;;15.04;80.45;100723.00;694253;28;1433;-53
2021/09/26 00:52:00;;;;;;;7.88;5.43;;;;;;;15.04;80.14;100728.28;694442;28;1039;-57
2021/09/26 00:52:24;;;;;;;7.50;5.40;;;;;;;15.02;79.88;100727.44;694116;28;4920;-56
2021/09/26 00:52:47;;;;;;;7.50;5.75;;;;;;;15.02;79.89;100722.16;694572;28;1331;-54
2021/09/26 00:53:07;;;;;;;6.35;5.60;;;;;;;15.03;80.41;100718.63;694145;28;1306;-54
2021/09/26 00:53:28;;;;;;;6.82;5.50;;;;;;;15.00;80.18;100719.56;694845;28;972;-53
2021/09/26 00:53:48;;;;;;;7.23;5.30;;;;;;;14.99;80.20;100720.47;694173;28;2233;-54
2021/09/26 00:54:10;;;;;;;7.00;5.32;;;;;;;14.97;80.16;100720.50;694227;28;3627;-54
2021/09/26 00:54:30;;;;;;;6.65;5.07;;;;;;;14.98;80.41;100724.88;694417;28;1143;-55
2021/09/26 00:54:51;;;;;;;7.10;5.40;;;;;;;15.00;79.99;100718.72;694184;28;1093;-53
2021/09/26 00:55:12;;;;;;;6.55;5.28;;;;;;;15.01;80.14;100723.06;695933;28;1085;-53
2021/09/26 00:55:32;;;;;;;6.40;5.10;;;;;;;15.02;80.21;100722.16;697131;28;5126;-52
2021/09/26 00:55:57;;;;;;;6.33;5.10;;;;;;;15.03;80.20;100719.50;697125;28;1200;-52
2021/09/26 00:56:17;;;;;;;6.80;5.55;;;;;;;15.04;80.03;100728.28;695920;28;1119;-54
2021/09/26 00:56:39;;;;;;;7.20;5.60;;;;;;;15.04;79.57;100725.66;697177;28;1193;-52
2021/09/26 00:56:59;;;;;;;6.60;5.40;;;;;;;15.03;79.45;100726.53;698407;28;3109;-53
2021/09/26 00:57:23;;;;;;;6.55;5.47;;;;;;;15.03;79.84;100721.28;696840;28;4201;-53
2021/09/26 00:57:44;;;;;;;7.03;5.53;;;;;;;15.03;80.08;100727.38;696721;28;1221;-54
2021/09/26 00:58:05;;;;;;;6.82;5.38;;;;;;;15.02;80.24;100720.38;696555;28;1421;-55
2021/09/26 00:58:26;;;;;;;6.53;5.33;;;;;;;15.03;80.06;100723.91;695292;28;5492;-55
2021/09/26 00:58:46;;;;;;;6.28;5.47;;;;;;;15.01;80.61;100725.69;693994;28;990;-54
2021/09/26 00:59:07;;;;;;;7.33;5.40;;;;;;;15.01;80.51;100717.78;695347;28;1107;-53
2021/09/26 00:59:27;;;;;;;8.10;5.50;;;;;;;14.98;80.73;100716.09;694697;28;1196;-52
2021/09/26 00:59:47;;;;;;;6.93;5.40;;;;;;;14.98;80.69;100727.50;694534;28;1072;-54
2021/09/26 01:00:12;;;;;;;7.25;5.30;;;;;;;14.97;80.37;100723.13;692970;28;3392;-53
2021/09/26 01:00:33;;;;;;;8.60;5.50;;;;;;;14.95;80.78;100724.06;693797;28;1238;-56
2021/09/26 01:00:53;;;;;;;7.57;5.47;;;;;;;14.95;80.49;100722.31;694280;28;1377;-54
2021/09/26 01:01:14;;;;;;;6.45;5.30;;;;;;;14.96;80.38;100721.38;693959;28;5589;-55
2021/09/26 01:01:34;;;;;;;6.60;5.40;;;;;;;14.98;80.63;100724.88;696680;28;1183;-52
2021/09/26 01:01:54;;;;;;;6.75;5.35;;;;;;;15.00;80.32;100722.19;696920;28;1185;-54
2021/09/26 01:02:15;;;;;;;7.60;5.30;;;;;;;15.02;80.38;100730.06;697829;28;1214;-57
2021/09/26 01:02:35;;;;;;;7.65;5.72;;;;;;;15.02;80.37;100719.53;696991;28;1078;-54
2021/09/26 01:02:56;;;;;;;7.20;5.63;;;;;;;15.03;80.72;100729.16;697147;28;1253;-55
2021/09/26 01:03:16;;;;;;;7.13;5.85;;;;;;;15.00;79.86;100722.19;697199;28;3103;-54
2021/09/26 01:03:36;;;;;;;7.53;5.93;;;;;;;15.01;79.70;100723.06;697265;28;1434;-53
2021/09/26 01:03:58;;;;;;;6.67;5.80;;;;;;;15.01;80.13;100717.78;697015;28;1335;-56
2021/09/26 01:04:19;;;;;;;7.38;5.95;;;;;;;15.00;79.66;100718.72;696060;28;4544;-56
2021/09/26 01:04:40;;;;;;;7.90;5.95;;;;;;;15.00;79.61;100716.09;694266;28;1048;-53
2021/09/26 01:05:01;;;;;;;6.90;5.70;;;;;;;15.00;79.62;100723.97;694985;28;1031;-52
2021/09/26 01:05:26;;;;;;;6.78;5.70;;;;;;;15.00;79.92;100723.97;694471;28;1072;-52
2021/09/26 01:06:09;;;;;;;6.55;5.82;;;;;;;14.98;80.30;100726.63;693200;28;1183;-54
2021/09/26 01:06:53;;;;;;;6.18;5.28;;;;;;;14.97;80.48;100717.00;693502;28;3477;-57
2021/09/26 01:07:19;;;;;;;6.65;5.32;;;;;;;14.98;80.35;100727.50;686490;28;1255;-56
2021/09/26 01:07:46;;;;;;;6.63;5.40;;;;;;;15.00;80.41;100721.34;693137;28;5036;-53
2021/09/26 01:08:15;;;;;;;7.65;5.80;;;;;;;15.01;80.32;100723.94;694857;28;949;-52
2021/09/26 01:08:58;;;;;;;6.15;5.15;;;;;;;15.01;80.60;100715.16;693887;28;1202;-52
2021/09/26 01:09:42;;;;;;;7.20;5.68;;;;;;;14.98;80.30;100719.59;694567;28;1942;-51
2021/09/26 01:10:10;;;;;;;7.32;5.40;;;;;;;14.97;81.38;100724.91;694103;28;3305;-52
2021/09/26 01:11:12;;;;;;;7.47;5.38;;;;;;;14.96;80.72;100720.53;696301;28;4459;-52
2021/09/26 01:11:58;;;;;;;6.25;5.30;;;;;;;15.00;80.44;100713.44;696086;28;1095;-53
2021/09/26 01:12:47;;;;;;;6.90;5.60;;;;;;;15.02;80.28;100714.25;696270;28;1125;-53
2021/09/26 01:13:15;;;;;;;6.78;5.38;;;;;;;15.01;80.61;100708.16;696589;28;3260;-53
2021/09/26 01:13:53;;;;;;;7.63;5.32;;;;;;;15.01;80.88;100712.53;695920;28;4825;-55
2021/09/26 01:14:34;;;;;;;7.25;5.70;;;;;;;15.01;80.27;100715.16;696845;28;1078;-54
2021/09/26 01:15:15;;;;;;;8.00;5.80;;;;;;;15.01;80.34;100715.16;696683;28;1055;-55
2021/09/26 01:15:43;;;;;;;7.05;5.45;;;;;;;15.01;80.14;100717.78;697117;28;1039;-56
2021/09/26 01:16:12;;;;;;;6.88;5.50;;;;;;;15.00;80.49;100714.31;697270;28;3289;-52
2021/09/26 01:16:40;;;;;;;7.78;5.35;;;;;;;14.98;80.64;100714.34;695538;28;5154;-54
2021/09/26 01:17:22;;;;;;;8.30;5.20;;;;;;;14.97;80.82;100717.88;696737;28;1399;-54
2021/09/26 01:17:50;;;;;;;7.10;5.32;;;;;;;14.95;80.58;100709.16;696721;28;1139;-52
2021/09/26 01:18:40;;;;;;;6.65;5.30;;;;;;;14.95;80.71;100714.41;697315;28;1066;-54
2021/09/26 01:19:12;;;;;;;6.00;5.40;;;;;;;14.96;80.48;100715.28;696455;28;1317;-54
2021/09/26 01:19:54;;;;;;;6.50;5.30;;;;;;;14.97;80.92;100712.59;693388;28;4513;-52
2021/09/26 01:20:21;;;;;;;6.47;5.57;;;;;;;14.97;81.64;100712.59;694553;28;1414;-55
2021/09/26 01:20:56;;;;;;;6.90;5.60;;;;;;;14.95;81.04;100714.41;693802;28;1253;-56
2021/09/26 01:21:16;;;;;;;6.55;5.55;;;;;;;14.96;80.89;100715.28;694588;28;1027;-56
2021/09/26 01:21:44;;;;;;;8.23;5.70;;;;;;;14.96;80.75;100713.50;693890;28;1126;-53
2021/09/26 01:22:09;;;;;;;8.00;5.50;;;;;;;14.97;80.99;100706.47;694388;28;1086;-51
2021/09/26 01:22:40;;;;;;;7.47;5.55;;;;;;;14.97;81.08;100711.75;695388;28;4634;-52
2021/09/26 01:23:19;;;;;;;6.82;5.47;;;;;;;14.96;81.70;100710.00;696900;28;1137;-55
2021/09/26 01:24:10;;;;;;;6.93;5.68;;;;;;;14.92;81.91;100708.34;696657;28;1027;-54
2021/09/26 01:24:48;;;;;;;8.07;5.70;;;;;;;14.93;81.76;100707.44;697302;28;1194;-55
2021/09/26 01:25:43;;;;;;;7.72;5.90;;;;;;;14.96;81.45;100710.84;696996;28;1027;-53
2021/09/26 01:26:23;;;;;;;6.63;5.70;;;;;;;14.98;81.33;100708.19;696523;28;5015;-52
2021/09/26 01:26:51;;;;;;;7.00;5.80;;;;;;;14.98;81.12;100714.34;696551;28;1178;-55
2021/09/26 01:27:24;;;;;;;6.75;5.80;;;;;;;15.00;80.93;100710.81;697222;28;1035;-52
2021/09/26 01:27:57;;;;;;;7.00;5.50;;;;;;;15.00;80.83;100705.56;696915;28;1076;-57
2021/09/26 01:28:20;;;;;;;6.75;5.60;;;;;;;15.03;80.55;100700.22;696940;28;1090;-52
2021/09/26 01:29:02;;;;;;;6.43;5.32;;;;;;;15.04;80.31;100708.06;696470;28;3214;-54
2021/09/26 01:29:53;;;;;;;7.40;5.80;;;;;;;15.06;80.35;100703.63;697287;28;1312;-52
2021/09/26 01:30:33;;;;;;;7.35;5.75;;;;;;;15.07;79.71;100709.78;697429;28;1023;-53
2021/09/26 01:30:56;;;;;;;7.10;5.70;;;;;;;15.08;79.67;100703.63;696824;28;1119;-52
2021/09/26 01:31:21;;;;;;;6.65;5.78;;;;;;;15.07;79.71;100710.63;697074;28;5344;-55
2021/09/26 01:31:49;;;;;;;7.45;5.85;;;;;;;15.09;79.70;100706.22;694689;28;3092;-52
2021/09/26 01:32:12;;;;;;;7.95;5.80;;;;;;;15.10;79.85;100707.06;696564;28;1389;-55
2021/09/26 01:32:34;;;;;;;6.97;5.70;;;;;;;15.09;80.04;100708.84;696552;28;1287;-52
2021/09/26 01:33:01;;;;;;;7.07;5.90;;;;;;;15.10;79.92;100707.91;695888;28;1142;-54
2021/09/26 01:33:29;;;;;;;6.78;5.68;;;;;;;15.11;79.76;100709.66;696613;28;1187;-52
2021/09/26 01:33:54;;;;;;;6.70;5.68;;;;;;;15.12;79.75;100710.53;696507;28;1159;-53
2021/09/26 01:34:24;;;;;;;6.70;5.60;;;;;;;15.13;80.56;100706.97;697258;28;4481;-55
2021/09/26 01:34:51;;;;;;;7.45;5.28;;;;;;;15.13;79.95;100712.25;693035;28;3530;-52
2021/09/26 01:35:14;;;;;;;6.88;5.47;;;;;;;15.14;79.79;100708.72;693479;28;1234;-53
2021/09/26 01:35:45;;;;;;;7.20;5.45;;;;;;;15.15;79.49;100710.47;693509;28;1496;-54
2021/09/26 01:36:26;;;;;;;7.65;5.93;;;;;;;15.17;79.25;100710.44;695176;28;1035;-52
2021/09/26 01:37:02;;;;;;;7.90;6.05;;;;;;;15.18;79.11;100707.75;693457;28;1103;-52
2021/09/26 01:37:37;;;;;;;6.72;5.70;;;;;;;15.20;78.96;100716.47;694779;28;4382;-54
2021/09/26 01:38:08;;;;;;;6.68;5.75;;;;;;;15.21;78.77;100720.84;696796;28;3246;-52
2021/09/26 01:38:58;;;;;;;6.63;5.85;;;;;;;15.24;78.68;100715.50;696764;28;1166;-53
2021/09/26 01:39:26;;;;;;;7.28;5.70;;;;;;;15.24;78.75;100710.22;697644;28;1041;-55
2021/09/26 01:39:52;;;;;;;7.28;5.90;;;;;;;15.25;78.55;100714.59;697064;28;1334;-53
2021/09/26 01:40:25;;;;;;;7.88;5.82;;;;;;;15.27;78.43;100715.44;696992;28;1105;-53
2021/09/26 01:40:51;;;;;;;6.68;5.82;;;;;;;15.28;78.66;100717.16;698053;28;6012;-53
2021/09/26 01:41:33;;;;;;;8.55;5.85;;;;;;;15.31;78.35;100716.22;693263;28;4227;-53
2021/09/26 01:42:07;;;;;;;7.30;5.82;;;;;;;15.32;78.37;100708.28;695472;28;1310;-52
2021/09/26 01:42:38;;;;;;;8.75;5.68;;;;;;;15.33;78.26;100715.28;696583;28;3410;-54
2021/09/26 01:43:06;;;;;;;7.45;5.82;;;;;;;15.35;78.31;100714.41;695430;28;1203;-55
2021/09/26 01:43:38;;;;;;;7.88;5.63;;;;;;;15.36;78.41;100719.63;694601;28;5867;-53
2021/09/26 01:44:01;;;;;;;7.35;5.45;;;;;;;15.36;78.28;100716.13;693963;28;3051;-54
2021/09/26 01:44:48;;;;;;;6.60;5.60;;;;;;;15.39;78.88;100718.69;694195;28;3791;-52
2021/09/26 01:45:15;;;;;;;7.28;6.00;;;;;;;15.39;78.47;100711.63;694418;28;1239;-56
2021/09/26 01:45:52;;;;;;;7.47;5.93;;;;;;;15.40;79.67;100707.25;694074;28;1104;-54
2021/09/26 01:46:21;;;;;;;6.63;5.40;;;;;;;15.39;79.54;100711.63;694618;28;1185;-53
2021/09/26 01:46:48;;;;;;;7.70;6.20;;;;;;;15.40;79.58;100709.88;697513;28;5035;-51
2021/09/26 01:47:13;;;;;;;8.18;5.93;;;;;;;15.39;79.31;100714.28;697510;28;2016;-54
2021/09/26 01:47:57;;;;;;;7.15;5.60;;;;;;;15.37;79.29;100704.66;697887;28;1224;-53
2021/09/26 01:48:22;;;;;;;6.80;5.65;;;;;;;15.38;79.29;100711.69;697365;28;1054;-54
2021/09/26 01:48:53;;;;;;;6.35;5.57;;;;;;;15.37;79.49;100707.31;697676;28;1091;-54
2021/09/26 01:49:21;;;;;;;6.07;5.47;;;;;;;15.37;79.13;100707.31;698338;28;1095;-54
2021/09/26 01:49:47;;;;;;;6.65;5.55;;;;;;;15.37;78.98;100707.31;697040;28;4874;-52
2021/09/26 01:50:10;;;;;;;6.53;5.60;;;;;;;15.36;79.45;100709.09;697321;28;3187;-55
2021/09/26 01:50:33;;;;;;;6.90;5.70;;;;;;;15.36;79.15;100706.44;697176;28;3575;-55
2021/09/26 01:50:58;;;;;;;6.68;5.50;;;;;;;15.36;78.90;100706.44;697266;28;1133;-55
2021/09/26 01:51:21;;;;;;;6.97;5.45;;;;;;;15.36;78.82;100709.09;697897;28;1469;-54
2021/09/26 01:51:43;;;;;;;8.15;5.50;;;;;;;15.37;78.87;100712.56;697559;28;1035;-53
2021/09/26 01:52:09;;;;;;;8.05;5.68;;;;;;;15.37;78.79;100709.94;699732;28;1106;-52
2021/09/26 01:52:33;;;;;;;8.10;6.18;;;;;;;15.36;78.81;100710.88;696800;28;4409;-52
2021/09/26 01:52:56;;;;;;;8.85;5.88;;;;;;;15.36;78.66;100708.22;697337;28;1069;-54
2021/09/26 01:53:18;;;;;;;7.47;5.90;;;;;;;15.36;78.61;100710.88;697727;28;3086;-56
2021/09/26 01:53:43;;;;;;;8.23;5.80;;;;;;;15.37;78.68;100720.47;697075;28;2424;-55
2021/09/26 01:54:08;;;;;;;6.65;5.55;;;;;;;15.35;78.59;100714.41;694609;28;1538;-53
2021/09/26 01:54:29;;;;;;;7.30;5.65;;;;;;;15.37;78.67;100712.56;691885;28;2175;-53
2021/09/26 01:54:50;;;;;;;6.75;5.50;;;;;;;15.36;78.58;100710.88;692768;28;1139;-54
2021/09/26 01:55:11;;;;;;;7.38;5.45;;;;;;;15.37;78.52;100715.22;692530;28;1079;-54
2021/09/26 01:55:33;;;;;;;7.00;5.70;;;;;;;15.37;78.46;100716.09;693337;28;4592;-54
2021/09/26 01:55:56;;;;;;;6.65;5.50;;;;;;;15.36;78.46;100711.72;697293;28;1242;-56
2021/09/26 01:56:16;;;;;;;6.97;5.63;;;;;;;15.37;78.40;100713.47;697089;28;1258;-52
2021/09/26 01:56:42;;;;;;;7.07;6.10;;;;;;;15.38;78.26;100709.03;696667;28;3792;-53